Terminal Aerodrome Forecast
Issued by NWS

Home | Current Version | Previous Version | Text Only | Print | Product List | Glossary On
Versions: 1 2 3 4 5 6 7 8 9 10 11 12 13 14 15 16 17 18 19 20 21 22 23
000
FTUS41 KBUF 271728
TAFJHW
TAF
KJHW 271728Z 2718/2818 22009G14KT P6SM SCT035 BKN050
     FM272000 22012KT P6SM VCTS BKN035CB
     FM280100 21010KT 6SM -SHRA VCTS BKN045CB
     FM280600 25008KT 6SM -SHRA OVC070
     FM280800 27009KT 6SM BR BKN080
     FM281000 28009KT P6SM BKN080
      AMD LTD TO CLD VIS AND WIND=

USA.gov is the U.S. government's official web portal to all federal, state and local government web resources and services.